sensor_id;sensor_type;location;lat;lon;timestamp;pressure;altitude;pressure_sealevel;temperature;humidity
37710;BME280;60223;34.854;-92.408;2023-03-01T00:01:05;99615.29;;;26.04;25.95
37710;BME280;60223;34.854;-92.408;2023-03-01T00:03:26;99619.65;;;26.13;26.11
37710;BME280;60223;34.854;-92.408;2023-03-01T00:05:52;99614.51;;;26.17;26.11
37710;BME280;60223;34.854;-92.408;2023-03-01T00:08:18;99614.06;;;26.35;26.22
37710;BME280;60223;34.854;-92.408;2023-03-01T00:10:43;99621.28;;;25.96;26.39
37710;BME280;60223;34.854;-92.408;2023-03-01T00:13:06;99624.69;;;26.19;26.44
37710;BME280;60223;34.854;-92.408;2023-03-01T00:15:37;99625.37;;;25.84;26.52
37710;BME280;60223;34.854;-92.408;2023-03-01T00:18:00;99628.44;;;25.63;26.57
37710;BME280;60223;34.854;-92.408;2023-03-01T00:20:26;99630.62;;;26.22;26.46
37710;BME280;60223;34.854;-92.408;2023-03-01T00:22:52;99634.50;;;25.89;26.55
37710;BME280;60223;34.854;-92.408;2023-03-01T00:25:18;99639.31;;;26.33;26.37
37710;BME280;60223;34.854;-92.408;2023-03-01T00:27:42;99640.76;;;25.84;26.82
37710;BME280;60223;34.854;-92.408;2023-03-01T00:30:10;99639.61;;;25.94;26.58
37710;BME280;60223;34.854;-92.408;2023-03-01T00:32:33;99642.91;;;25.72;26.56
37710;BME280;60223;34.854;-92.408;2023-03-01T00:34:59;99641.23;;;25.76;26.71
37710;BME280;60223;34.854;-92.408;2023-03-01T00:37:25;99641.79;;;25.78;26.75
37710;BME280;60223;34.854;-92.408;2023-03-01T00:39:49;99641.29;;;25.50;26.77
37710;BME280;60223;34.854;-92.408;2023-03-01T00:42:16;99645.76;;;25.82;26.62
37710;BME280;60223;34.854;-92.408;2023-03-01T00:44:42;99649.46;;;25.69;26.86
37710;BME280;60223;34.854;-92.408;2023-03-01T00:47:08;99658.29;;;25.55;27.21
37710;BME280;60223;34.854;-92.408;2023-03-01T00:49:33;99661.65;;;25.71;26.82
37710;BME280;60223;34.854;-92.408;2023-03-01T00:51:59;99664.85;;;25.93;26.67
37710;BME280;60223;34.854;-92.408;2023-03-01T00:54:22;99667.15;;;26.06;26.63
37710;BME280;60223;34.854;-92.408;2023-03-01T00:56:50;99668.85;;;25.92;26.67
37710;BME280;60223;34.854;-92.408;2023-03-01T00:59:16;99668.68;;;26.23;26.42
37710;BME280;60223;34.854;-92.408;2023-03-01T01:01:41;99664.47;;;25.67;26.88
37710;BME280;60223;34.854;-92.408;2023-03-01T01:04:09;99665.46;;;25.61;26.68
37710;BME280;60223;34.854;-92.408;2023-03-01T01:06:34;99662.37;;;25.70;26.59
37710;BME280;60223;34.854;-92.408;2023-03-01T01:08:59;99668.80;;;25.96;26.29
37710;BME280;60223;34.854;-92.408;2023-03-01T01:11:26;99669.54;;;25.86;26.40
37710;BME280;60223;34.854;-92.408;2023-03-01T01:13:49;99665.66;;;25.74;26.52
37710;BME280;60223;34.854;-92.408;2023-03-01T01:16:15;99667.42;;;25.60;26.92
37710;BME280;60223;34.854;-92.408;2023-03-01T01:18:41;99668.35;;;25.55;26.94
37710;BME280;60223;34.854;-92.408;2023-03-01T01:21:09;99666.52;;;25.28;26.99
37710;BME280;60223;34.854;-92.408;2023-03-01T01:23:32;99667.99;;;25.80;26.50
37710;BME280;60223;34.854;-92.408;2023-03-01T01:38:06;99670.61;;;25.35;27.01
37710;BME280;60223;34.854;-92.408;2023-03-01T01:40:32;99669.52;;;25.69;26.73
37710;BME280;60223;34.854;-92.408;2023-03-01T01:42:57;99670.58;;;25.61;26.78
37710;BME280;60223;34.854;-92.408;2023-03-01T01:45:28;99678.15;;;25.43;26.98
37710;BME280;60223;34.854;-92.408;2023-03-01T01:47:48;99682.64;;;25.98;26.74
37710;BME280;60223;34.854;-92.408;2023-03-01T01:50:19;99684.99;;;25.67;26.78
37710;BME280;60223;34.854;-92.408;2023-03-01T01:52:41;99687.34;;;25.64;26.59
37710;BME280;60223;34.854;-92.408;2023-03-01T01:55:08;99689.76;;;25.43;27.03
37710;BME280;60223;34.854;-92.408;2023-03-01T01:57:36;99689.71;;;25.47;27.02
37710;BME280;60223;34.854;-92.408;2023-03-01T01:59:57;99688.10;;;25.16;27.28
37710;BME280;60223;34.854;-92.408;2023-03-01T02:02:23;99688.61;;;25.08;27.41
37710;BME280;60223;34.854;-92.408;2023-03-01T02:04:47;99692.08;;;25.27;27.51
37710;BME280;60223;34.854;-92.408;2023-03-01T02:07:18;99694.92;;;25.16;27.61
37710;BME280;60223;34.854;-92.408;2023-03-01T02:09:39;99695.87;;;25.45;27.35
37710;BME280;60223;34.854;-92.408;2023-03-01T02:12:05;99697.31;;;25.16;27.42
37710;BME280;60223;34.854;-92.408;2023-03-01T02:14:31;99699.71;;;25.18;27.42
37710;BME280;60223;34.854;-92.408;2023-03-01T02:16:55;99701.53;;;24.66;27.97
37710;BME280;60223;34.854;-92.408;2023-03-01T02:19:31;99704.18;;;24.83;27.80
37710;BME280;60223;34.854;-92.408;2023-03-01T02:21:49;99703.68;;;25.03;27.61
37710;BME280;60223;34.854;-92.408;2023-03-01T02:24:17;99705.71;;;25.04;27.87
37710;BME280;60223;34.854;-92.408;2023-03-01T02:26:45;99705.81;;;25.29;27.61
37710;BME280;60223;34.854;-92.408;2023-03-01T02:29:04;99704.56;;;24.90;28.03
37710;BME280;60223;34.854;-92.408;2023-03-01T02:31:29;99705.57;;;25.34;27.62
37710;BME280;60223;34.854;-92.408;2023-03-01T02:33:56;99702.36;;;25.48;27.44
37710;BME280;60223;34.854;-92.408;2023-03-01T02:36:22;99701.40;;;26.26;26.73
37710;BME280;60223;34.854;-92.408;2023-03-01T02:38:48;99705.92;;;25.32;27.61
37710;BME280;60223;34.854;-92.408;2023-03-01T02:41:14;99709.65;;;25.78;27.15
37710;BME280;60223;34.854;-92.408;2023-03-01T02:43:36;99706.38;;;25.82;27.11
37710;BME280;60223;34.854;-92.408;2023-03-01T02:46:06;99706.71;;;25.47;27.41
37710;BME280;60223;34.854;-92.408;2023-03-01T02:51:03;99708.76;;;25.02;27.46
37710;BME280;60223;34.854;-92.408;2023-03-01T02:53:21;99714.18;;;24.46;28.41
37710;BME280;60223;34.854;-92.408;2023-03-01T02:55:47;99708.35;;;25.03;27.88
37710;BME280;60223;34.854;-92.408;2023-03-01T02:58:08;99708.25;;;24.51;28.72
37710;BME280;60223;34.854;-92.408;2023-03-01T03:00:39;99709.73;;;23.66;29.47
37710;BME280;60223;34.854;-92.408;2023-03-01T03:03:03;99702.21;;;23.04;30.45
37710;BME280;60223;34.854;-92.408;2023-03-01T03:05:30;99700.59;;;22.86;30.57
37710;BME280;60223;34.854;-92.408;2023-03-01T03:07:54;99697.26;;;23.98;29.61
37710;BME280;60223;34.854;-92.408;2023-03-01T03:10:21;99692.47;;;22.63;30.85
37710;BME280;60223;34.854;-92.408;2023-03-01T03:12:48;99700.56;;;23.84;29.56
37710;BME280;60223;34.854;-92.408;2023-03-01T03:15:11;99695.36;;;22.60;30.66
37710;BME280;60223;34.854;-92.408;2023-03-01T03:17:37;99696.18;;;22.39;30.67
37710;BME280;60223;34.854;-92.408;2023-03-01T03:20:03;99691.84;;;22.10;31.09
37710;BME280;60223;34.854;-92.408;2023-03-01T03:22:28;99693.40;;;21.87;30.55
37710;BME280;60223;34.854;-92.408;2023-03-01T03:24:53;99690.56;;;22.14;30.75
37710;BME280;60223;34.854;-92.408;2023-03-01T03:27:20;99692.42;;;21.47;31.16
37710;BME280;60223;34.854;-92.408;2023-03-01T03:29:45;99690.99;;;22.22;31.33
37710;BME280;60223;34.854;-92.408;2023-03-01T03:32:11;99694.26;;;22.66;30.66
37710;BME280;60223;34.854;-92.408;2023-03-01T03:34:36;99691.63;;;22.41;30.92
37710;BME280;60223;34.854;-92.408;2023-03-01T03:37:01;99693.51;;;21.99;31.31
37710;BME280;60223;34.854;-92.408;2023-03-01T03:39:28;99696.33;;;22.80;30.70
37710;BME280;60223;34.854;-92.408;2023-03-01T03:41:53;99701.38;;;23.19;30.44
37710;BME280;60223;34.854;-92.408;2023-03-01T03:44:19;99706.49;;;23.20;30.69
37710;BME280;60223;34.854;-92.408;2023-03-01T03:46:43;99711.33;;;22.26;31.18
37710;BME280;60223;34.854;-92.408;2023-03-01T03:49:11;99714.28;;;21.78;31.68
37710;BME280;60223;34.854;-92.408;2023-03-01T03:51:36;99718.66;;;22.64;30.80
37710;BME280;60223;34.854;-92.408;2023-03-01T03:54:02;99722.46;;;22.28;31.61
37710;BME280;60223;34.854;-92.408;2023-03-01T03:56:27;99726.19;;;22.21;31.26
37710;BME280;60223;34.854;-92.408;2023-03-01T03:58:51;99729.52;;;21.73;31.71
37710;BME280;60223;34.854;-92.408;2023-03-01T04:01:18;99734.57;;;21.93;31.70
37710;BME280;60223;34.854;-92.408;2023-03-01T04:03:44;99739.89;;;22.20;31.18
37710;BME280;60223;34.854;-92.408;2023-03-01T04:06:10;99743.38;;;22.19;31.48
37710;BME280;60223;34.854;-92.408;2023-03-01T04:08:35;99744.81;;;22.17;31.56
37710;BME280;60223;34.854;-92.408;2023-03-01T04:11:03;99743.72;;;22.65;30.98
37710;BME280;60223;34.854;-92.408;2023-03-01T04:13:27;99743.56;;;22.38;31.33
37710;BME280;60223;34.854;-92.408;2023-03-01T04:15:53;99739.05;;;21.88;32.02
37710;BME280;60223;34.854;-92.408;2023-03-01T04:18:19;99741.26;;;22.11;31.46
37710;BME280;60223;34.854;-92.408;2023-03-01T04:20:43;99740.26;;;21.72;31.97
37710;BME280;60223;34.854;-92.408;2023-03-01T04:23:11;99738.71;;;21.94;31.79
37710;BME280;60223;34.854;-92.408;2023-03-01T04:25:35;99736.83;;;21.99;31.65
37710;BME280;60223;34.854;-92.408;2023-03-01T04:28:00;99737.34;;;21.44;31.90
37710;BME280;60223;34.854;-92.408;2023-03-01T04:30:25;99732.50;;;21.88;31.86
37710;BME280;60223;34.854;-92.408;2023-03-01T04:32:52;99733.34;;;21.41;31.96
37710;BME280;60223;34.854;-92.408;2023-03-01T04:35:18;99736.84;;;21.60;32.01
37710;BME280;60223;34.854;-92.408;2023-03-01T04:37:43;99731.12;;;21.75;31.97
37710;BME280;60223;34.854;-92.408;2023-03-01T04:40:10;99734.32;;;22.52;31.11
37710;BME280;60223;34.854;-92.408;2023-03-01T04:42:34;99740.38;;;22.61;31.10
37710;BME280;60223;34.854;-92.408;2023-03-01T04:45:00;99747.96;;;21.82;31.90
37710;BME280;60223;34.854;-92.408;2023-03-01T04:47:25;99744.44;;;22.01;31.79
37710;BME280;60223;34.854;-92.408;2023-03-01T04:49:51;99748.63;;;21.76;31.81
37710;BME280;60223;34.854;-92.408;2023-03-01T04:52:17;99753.65;;;21.72;32.04
37710;BME280;60223;34.854;-92.408;2023-03-01T04:54:41;99750.53;;;21.47;31.87
37710;BME280;60223;34.854;-92.408;2023-03-01T04:57:08;99748.48;;;21.23;32.55
37710;BME280;60223;34.854;-92.408;2023-03-01T04:59:34;99755.01;;;21.73;32.09
37710;BME280;60223;34.854;-92.408;2023-03-01T05:02:00;99753.95;;;22.02;31.83
37710;BME280;60223;34.854;-92.408;2023-03-01T05:04:24;99756.78;;;21.78;32.09
37710;BME280;60223;34.854;-92.408;2023-03-01T05:06:51;99754.01;;;22.04;31.81
37710;BME280;60223;34.854;-92.408;2023-03-01T05:09:17;99753.11;;;21.90;31.79
37710;BME280;60223;34.854;-92.408;2023-03-01T05:11:42;99751.43;;;21.47;32.25
37710;BME280;60223;34.854;-92.408;2023-03-01T05:14:06;99750.50;;;21.63;31.99
37710;BME280;60223;34.854;-92.408;2023-03-01T05:16:33;99753.59;;;21.78;31.98
37710;BME280;60223;34.854;-92.408;2023-03-01T05:18:59;99754.76;;;21.80;31.85
37710;BME280;60223;34.854;-92.408;2023-03-01T05:48:07;99757.58;;;21.93;32.18
37710;BME280;60223;34.854;-92.408;2023-03-01T05:50:34;99756.02;;;21.83;32.35
37710;BME280;60223;34.854;-92.408;2023-03-01T05:53:02;99759.32;;;21.66;32.19
37710;BME280;60223;34.854;-92.408;2023-03-01T05:55:23;99759.29;;;21.54;32.34
37710;BME280;60223;34.854;-92.408;2023-03-01T05:57:49;99758.72;;;21.71;32.20
37710;BME280;60223;34.854;-92.408;2023-03-01T06:00:18;99751.43;;;21.88;31.99
37710;BME280;60223;34.854;-92.408;2023-03-01T06:02:41;99753.73;;;21.96;31.84
37710;BME280;60223;34.854;-92.408;2023-03-01T06:05:06;99751.52;;;21.89;31.88
37710;BME280;60223;34.854;-92.408;2023-03-01T06:07:31;99749.93;;;21.15;32.23
37710;BME280;60223;34.854;-92.408;2023-03-01T06:09:57;99749.49;;;21.54;32.17
37710;BME280;60223;34.854;-92.408;2023-03-01T06:12:22;99746.68;;;21.79;31.77
37710;BME280;60223;34.854;-92.408;2023-03-01T06:14:49;99748.96;;;21.69;31.98
37710;BME280;60223;34.854;-92.408;2023-03-01T06:17:14;99747.43;;;21.87;31.80
37710;BME280;60223;34.854;-92.408;2023-03-01T06:19:39;99749.62;;;21.56;32.00
37710;BME280;60223;34.854;-92.408;2023-03-01T06:22:05;99744.98;;;21.54;32.10
37710;BME280;60223;34.854;-92.408;2023-03-01T06:24:30;99741.71;;;21.51;32.19
37710;BME280;60223;34.854;-92.408;2023-03-01T06:26:56;99741.81;;;21.89;31.72
37710;BME280;60223;34.854;-92.408;2023-03-01T06:29:22;99742.19;;;21.89;32.12
37710;BME280;60223;34.854;-92.408;2023-03-01T06:31:46;99738.47;;;20.99;32.53
37710;BME280;60223;34.854;-92.408;2023-03-01T06:34:14;99737.31;;;21.42;32.11
37710;BME280;60223;34.854;-92.408;2023-03-01T06:36:39;99729.57;;;21.32;32.19
37710;BME280;60223;34.854;-92.408;2023-03-01T06:39:05;99730.97;;;21.32;32.15
37710;BME280;60223;34.854;-92.408;2023-03-01T06:41:31;99730.40;;;21.52;32.18
37710;BME280;60223;34.854;-92.408;2023-03-01T06:43:56;99734.32;;;21.45;32.23
37710;BME280;60223;34.854;-92.408;2023-03-01T06:46:22;99734.73;;;21.37;32.27
37710;BME280;60223;34.854;-92.408;2023-03-01T06:48:47;99734.77;;;21.77;31.80
37710;BME280;60223;34.854;-92.408;2023-03-01T06:51:14;99737.92;;;21.38;32.25
37710;BME280;60223;34.854;-92.408;2023-03-01T06:53:39;99741.01;;;21.85;31.75
37710;BME280;60223;34.854;-92.408;2023-03-01T06:56:05;99740.76;;;21.45;32.02
37710;BME280;60223;34.854;-92.408;2023-03-01T06:58:28;99736.91;;;21.77;31.99
37710;BME280;60223;34.854;-92.408;2023-03-01T07:00:56;99740.40;;;21.50;32.04
37710;BME280;60223;34.854;-92.408;2023-03-01T07:03:22;99742.95;;;21.77;31.96
37710;BME280;60223;34.854;-92.408;2023-03-01T07:10:38;99742.52;;;21.58;31.77
37710;BME280;60223;34.854;-92.408;2023-03-01T07:13:05;99736.81;;;21.80;31.68
37710;BME280;60223;34.854;-92.408;2023-03-01T07:15:30;99733.83;;;21.44;32.06
37710;BME280;60223;34.854;-92.408;2023-03-01T07:17:56;99732.73;;;22.40;31.56
37710;BME280;60223;34.854;-92.408;2023-03-01T07:20:22;99738.70;;;21.56;31.89
37710;BME280;60223;34.854;-92.408;2023-03-01T07:22:47;99737.15;;;21.68;32.00
37710;BME280;60223;34.854;-92.408;2023-03-01T07:25:14;99737.53;;;21.48;31.96
37710;BME280;60223;34.854;-92.408;2023-03-01T07:27:39;99737.85;;;21.08;32.33
37710;BME280;60223;34.854;-92.408;2023-03-01T07:30:05;99744.12;;;21.55;31.71
37710;BME280;60223;34.854;-92.408;2023-03-01T07:32:28;99742.15;;;21.16;32.30
37710;BME280;60223;34.854;-92.408;2023-03-01T07:34:54;99739.32;;;21.01;32.43
37710;BME280;60223;34.854;-92.408;2023-03-01T07:37:21;99741.00;;;21.53;31.91
37710;BME280;60223;34.854;-92.408;2023-03-01T07:39:47;99739.58;;;21.44;31.89
37710;BME280;60223;34.854;-92.408;2023-03-01T07:42:13;99738.24;;;21.52;31.85
37710;BME280;60223;34.854;-92.408;2023-03-01T07:44:38;99731.26;;;21.50;31.85
37710;BME280;60223;34.854;-92.408;2023-03-01T07:47:04;99727.15;;;21.46;31.91
37710;BME280;60223;34.854;-92.408;2023-03-01T07:49:28;99726.46;;;21.70;31.63
37710;BME280;60223;34.854;-92.408;2023-03-01T07:51:56;99726.94;;;20.84;32.51
37710;BME280;60223;34.854;-92.408;2023-03-01T07:54:21;99727.03;;;21.46;31.79
37710;BME280;60223;34.854;-92.408;2023-03-01T07:56:47;99721.69;;;22.06;31.13
37710;BME280;60223;34.854;-92.408;2023-03-01T07:59:13;99722.82;;;23.28;29.90
37710;BME280;60223;34.854;-92.408;2023-03-01T08:01:38;99723.27;;;23.78;29.24
37710;BME280;60223;34.854;-92.408;2023-03-01T08:04:03;99719.33;;;24.18;28.52
37710;BME280;60223;34.854;-92.408;2023-03-01T08:06:30;99717.43;;;23.96;28.91
37710;BME280;60223;34.854;-92.408;2023-03-01T08:08:55;99717.11;;;23.91;28.51
37710;BME280;60223;34.854;-92.408;2023-03-01T08:11:21;99715.31;;;24.06;28.33
37710;BME280;60223;34.854;-92.408;2023-03-01T08:13:47;99718.78;;;24.35;28.23
37710;BME280;60223;34.854;-92.408;2023-03-01T08:16:15;99743.39;;;24.07;28.33
37710;BME280;60223;34.854;-92.408;2023-03-01T08:18:35;99728.34;;;24.02;28.57
37710;BME280;60223;34.854;-92.408;2023-03-01T08:21:07;99740.07;;;23.85;28.44
37710;BME280;60223;34.854;-92.408;2023-03-01T08:23:49;99726.35;;;24.11;28.24
37710;BME280;60223;34.854;-92.408;2023-03-01T08:25:55;99732.49;;;23.47;28.77
37710;BME280;60223;34.854;-92.408;2023-03-01T08:28:21;99715.39;;;23.90;28.42
37710;BME280;60223;34.854;-92.408;2023-03-01T08:30:46;99713.69;;;24.45;27.88
37710;BME280;60223;34.854;-92.408;2023-03-01T08:33:12;99717.03;;;24.09;28.22
37710;BME280;60223;34.854;-92.408;2023-03-01T08:35:38;99705.26;;;24.30;28.00
37710;BME280;60223;34.854;-92.408;2023-03-01T08:38:04;99706.25;;;24.24;28.04
37710;BME280;60223;34.854;-92.408;2023-03-01T08:40:28;99699.61;;;24.43;27.84
37710;BME280;60223;34.854;-92.408;2023-03-01T08:42:55;99699.58;;;24.66;27.59
37710;BME280;60223;34.854;-92.408;2023-03-01T08:45:21;99701.67;;;24.40;27.84
37710;BME280;60223;34.854;-92.408;2023-03-01T08:47:46;99705.51;;;24.70;27.52
37710;BME280;60223;34.854;-92.408;2023-03-01T08:50:13;99709.87;;;24.36;27.84
37710;BME280;60223;34.854;-92.408;2023-03-01T08:52:37;99706.99;;;24.42;27.73
37710;BME280;60223;34.854;-92.408;2023-03-01T08:55:04;99704.63;;;23.59;28.29
37710;BME280;60223;34.854;-92.408;2023-03-01T08:57:29;99697.68;;;24.79;27.64
37710;BME280;60223;34.854;-92.408;2023-03-01T08:59:54;99693.19;;;24.40;27.73
37710;BME280;60223;34.854;-92.408;2023-03-01T09:02:19;99692.25;;;24.04;27.85
37710;BME280;60223;34.854;-92.408;2023-03-01T09:04:43;99693.78;;;24.11;27.98
37710;BME280;60223;34.854;-92.408;2023-03-01T09:07:12;99695.06;;;24.18;27.93
37710;BME280;60223;34.854;-92.408;2023-03-01T09:09:37;99702.88;;;23.94;27.93
37710;BME280;60223;34.854;-92.408;2023-03-01T09:12:02;99703.56;;;24.08;28.01
37710;BME280;60223;34.854;-92.408;2023-03-01T09:14:29;99693.01;;;24.38;27.71
37710;BME280;60223;34.854;-92.408;2023-03-01T09:16:54;99692.85;;;24.00;28.08
37710;BME280;60223;34.854;-92.408;2023-03-01T09:19:20;99692.01;;;23.81;27.80
37710;BME280;60223;34.854;-92.408;2023-03-01T09:21:46;99692.38;;;24.13;27.69
37710;BME280;60223;34.854;-92.408;2023-03-01T09:24:15;99690.24;;;24.36;27.71
37710;BME280;60223;34.854;-92.408;2023-03-01T09:26:36;99692.81;;;24.30;27.76
37710;BME280;60223;34.854;-92.408;2023-03-01T09:29:03;99693.22;;;24.35;27.71
37710;BME280;60223;34.854;-92.408;2023-03-01T09:31:49;99693.47;;;24.13;27.90
37710;BME280;60223;34.854;-92.408;2023-03-01T09:33:53;99694.94;;;23.95;28.03
37710;BME280;60223;34.854;-92.408;2023-03-01T09:36:21;99696.06;;;24.33;27.67
37710;BME280;60223;34.854;-92.408;2023-03-01T09:38:46;99698.16;;;23.68;28.02
37710;BME280;60223;34.854;-92.408;2023-03-01T09:41:15;99697.94;;;23.79;28.15
37710;BME280;60223;34.854;-92.408;2023-03-01T09:43:43;99700.12;;;23.97;27.93
37710;BME280;60223;34.854;-92.408;2023-03-01T09:46:04;99701.46;;;24.53;27.45
37710;BME280;60223;34.854;-92.408;2023-03-01T09:48:36;99703.00;;;24.02;27.89
37710;BME280;60223;34.854;-92.408;2023-03-01T09:50:54;99700.13;;;24.34;27.61
37710;BME280;60223;34.854;-92.408;2023-03-01T09:53:20;99704.99;;;23.87;27.78
37710;BME280;60223;34.854;-92.408;2023-03-01T09:55:45;99704.19;;;24.07;27.80
37710;BME280;60223;34.854;-92.408;2023-03-01T10:00:38;99709.04;;;24.44;27.47
37710;BME280;60223;34.854;-92.408;2023-03-01T10:03:08;99714.45;;;23.97;27.91
37710;BME280;60223;34.854;-92.408;2023-03-01T10:05:36;99717.81;;;24.29;27.63
37710;BME280;60223;34.854;-92.408;2023-03-01T10:08:02;99717.47;;;24.12;27.77
37710;BME280;60223;34.854;-92.408;2023-03-01T10:10:25;99721.96;;;24.18;27.92
37710;BME280;60223;34.854;-92.408;2023-03-01T10:12:47;99722.11;;;23.97;27.91
37710;BME280;60223;34.854;-92.408;2023-03-01T10:15:11;99723.86;;;24.56;27.30
37710;BME280;60223;34.854;-92.408;2023-03-01T10:17:41;99721.02;;;23.77;27.83
37710;BME280;60223;34.854;-92.408;2023-03-01T10:20:13;99723.46;;;23.91;27.93
37710;BME280;60223;34.854;-92.408;2023-03-01T10:22:28;99725.24;;;24.40;27.46
37710;BME280;60223;34.854;-92.408;2023-03-01T10:24:56;99727.82;;;23.77;27.79
37710;BME280;60223;34.854;-92.408;2023-03-01T10:27:22;99726.07;;;23.78;28.01
37710;BME280;60223;34.854;-92.408;2023-03-01T10:29:50;99722.72;;;23.93;27.86
37710;BME280;60223;34.854;-92.408;2023-03-01T10:32:12;99719.05;;;24.06;27.95
37710;BME280;60223;34.854;-92.408;2023-03-01T10:34:37;99713.53;;;23.89;27.85
37710;BME280;60223;34.854;-92.408;2023-03-01T10:39:27;99711.48;;;24.01;27.72
37710;BME280;60223;34.854;-92.408;2023-03-01T10:41:59;99704.98;;;24.28;27.71
37710;BME280;60223;34.854;-92.408;2023-03-01T10:46:45;99711.09;;;23.89;27.80
37710;BME280;60223;34.854;-92.408;2023-03-01T10:49:16;99714.41;;;23.80;27.89
37710;BME280;60223;34.854;-92.408;2023-03-01T10:51:35;99711.05;;;23.89;27.78
37710;BME280;60223;34.854;-92.408;2023-03-01T10:54:02;99710.19;;;23.52;28.12
37710;BME280;60223;34.854;-92.408;2023-03-01T10:56:27;99716.19;;;23.56;28.10
37710;BME280;60223;34.854;-92.408;2023-03-01T10:58:58;99719.41;;;23.65;28.00
37710;BME280;60223;34.854;-92.408;2023-03-01T11:01:29;99724.57;;;23.70;27.99
37710;BME280;60223;34.854;-92.408;2023-03-01T11:03:43;99725.31;;;23.85;27.85
37710;BME280;60223;34.854;-92.408;2023-03-01T11:06:20;99732.25;;;23.71;27.69
37710;BME280;60223;34.854;-92.408;2023-03-01T11:08:39;99730.13;;;23.84;27.82
37710;BME280;60223;34.854;-92.408;2023-03-01T11:11:10;99728.40;;;24.08;27.58
37710;BME280;60223;34.854;-92.408;2023-03-01T11:13:26;99724.51;;;23.93;27.71
37710;BME280;60223;34.854;-92.408;2023-03-01T11:15:59;99717.37;;;24.57;27.11
37710;BME280;60223;34.854;-92.408;2023-03-01T11:18:23;99722.62;;;23.77;27.85
37710;BME280;60223;34.854;-92.408;2023-03-01T11:20:43;99729.38;;;23.98;27.67
37710;BME280;60223;34.854;-92.408;2023-03-01T11:25:39;99726.48;;;23.98;27.86
37710;BME280;60223;34.854;-92.408;2023-03-01T11:28:01;99745.16;;;24.05;27.79
37710;BME280;60223;34.854;-92.408;2023-03-01T11:30:31;99751.17;;;23.91;27.65
37710;BME280;60223;34.854;-92.408;2023-03-01T11:32:58;99762.04;;;23.69;27.86
37710;BME280;60223;34.854;-92.408;2023-03-01T11:35:22;99762.06;;;23.71;27.83
37710;BME280;60223;34.854;-92.408;2023-03-01T11:37:52;99762.33;;;23.59;27.94
37710;BME280;60223;34.854;-92.408;2023-03-01T11:40:16;99767.12;;;23.58;27.95
37710;BME280;60223;34.854;-92.408;2023-03-01T11:42:50;99768.48;;;24.24;27.34
37710;BME280;60223;34.854;-92.408;2023-03-01T11:45:02;99768.07;;;23.67;27.87
37710;BME280;60223;34.854;-92.408;2023-03-01T11:47:41;99766.03;;;23.91;27.59
37710;BME280;60223;34.854;-92.408;2023-03-01T11:52:25;99759.17;;;23.72;27.87
37710;BME280;60223;34.854;-92.408;2023-03-01T11:54:54;99763.74;;;24.31;27.26
37710;BME280;60223;34.854;-92.408;2023-03-01T11:57:17;99763.96;;;24.01;27.60
37710;BME280;60223;34.854;-92.408;2023-03-01T11:59:56;99761.40;;;25.47;26.72
37710;BME280;60223;34.854;-92.408;2023-03-01T12:02:15;99762.63;;;24.48;27.24
37710;BME280;60223;34.854;-92.408;2023-03-01T12:04:42;99764.40;;;25.09;26.83
37710;BME280;60223;34.854;-92.408;2023-03-01T12:06:57;99764.35;;;24.87;27.19
37710;BME280;60223;34.854;-92.408;2023-03-01T12:09:27;99768.79;;;25.52;26.68
37710;BME280;60223;34.854;-92.408;2023-03-01T12:11:53;99778.25;;;25.58;26.77
37710;BME280;60223;34.854;-92.408;2023-03-01T12:14:23;99791.38;;;25.23;27.11
37710;BME280;60223;34.854;-92.408;2023-03-01T12:19:22;99768.37;;;25.01;27.04
37710;BME280;60223;34.854;-92.408;2023-03-01T12:21:30;99770.39;;;24.94;27.39
37710;BME280;60223;34.854;-92.408;2023-03-01T12:24:04;99772.09;;;25.19;27.52
37710;BME280;60223;34.854;-92.408;2023-03-01T12:26:25;99751.51;;;25.49;27.10
37710;BME280;60223;34.854;-92.408;2023-03-01T12:28:56;99747.10;;;25.54;27.10
37710;BME280;60223;34.854;-92.408;2023-03-01T12:31:18;99750.01;;;25.64;27.15
37710;BME280;60223;34.854;-92.408;2023-03-01T12:33:41;99756.75;;;25.07;27.14
37710;BME280;60223;34.854;-92.408;2023-03-01T12:36:14;99772.65;;;25.03;27.22
37710;BME280;60223;34.854;-92.408;2023-03-01T12:38:36;99783.46;;;25.07;27.37
37710;BME280;60223;34.854;-92.408;2023-03-01T12:43:28;99784.53;;;25.50;27.34
37710;BME280;60223;34.854;-92.408;2023-03-01T12:45:56;99786.29;;;24.54;28.07
37710;BME280;60223;34.854;-92.408;2023-03-01T12:48:21;99788.37;;;25.41;27.92
37710;BME280;60223;34.854;-92.408;2023-03-01T12:50:38;99782.23;;;25.36;27.93
37710;BME280;60223;34.854;-92.408;2023-03-01T12:53:00;99796.80;;;25.35;27.84
37710;BME280;60223;34.854;-92.408;2023-03-01T12:55:31;99788.42;;;25.69;27.14
37710;BME280;60223;34.854;-92.408;2023-03-01T12:57:56;99785.79;;;25.50;27.15
37710;BME280;60223;34.854;-92.408;2023-03-01T13:00:24;99792.27;;;25.11;27.51
37710;BME280;60223;34.854;-92.408;2023-03-01T13:02:48;99790.30;;;26.11;27.10
37710;BME280;60223;34.854;-92.408;2023-03-01T13:07:36;99801.88;;;25.46;27.26
37710;BME280;60223;34.854;-92.408;2023-03-01T13:10:14;99797.63;;;25.99;27.07
37710;BME280;60223;34.854;-92.408;2023-03-01T13:14:50;99819.27;;;25.21;27.85
37710;BME280;60223;34.854;-92.408;2023-03-01T13:17:30;99832.09;;;25.44;27.67
37710;BME280;60223;34.854;-92.408;2023-03-01T13:29:30;99844.80;;;25.34;27.61
37710;BME280;60223;34.854;-92.408;2023-03-01T13:31:56;99846.30;;;25.32;27.81
37710;BME280;60223;34.854;-92.408;2023-03-01T13:36:49;99857.10;;;25.65;27.53
37710;BME280;60223;34.854;-92.408;2023-03-01T13:43:55;99873.70;;;25.34;27.86
37710;BME280;60223;34.854;-92.408;2023-03-01T13:46:23;99886.65;;;25.89;27.33
37710;BME280;60223;34.854;-92.408;2023-03-01T13:48:47;99889.48;;;25.65;27.53
37710;BME280;60223;34.854;-92.408;2023-03-01T13:51:14;99890.37;;;25.72;27.40
37710;BME280;60223;34.854;-92.408;2023-03-01T13:53:39;99886.21;;;25.62;27.47
37710;BME280;60223;34.854;-92.408;2023-03-01T13:56:07;99876.36;;;25.24;27.57